createdAt,value
2019-05-23T15:12:49.668Z,23.60
2019-05-23T15:15:19.594Z,23.40
2019-05-23T15:17:48.894Z,23.30
2019-05-23T15:20:19.334Z,23.10
2019-05-23T15:22:48.639Z,23.00
2019-05-23T15:25:18.106Z,23.00
2019-05-23T15:27:47.546Z,22.80
2019-05-23T15:30:17.486Z,22.50
2019-05-23T15:32:46.984Z,22.30
2019-05-23T15:35:17.084Z,22.10
2019-05-23T15:37:46.539Z,21.80
2019-05-23T15:40:16.094Z,21.60
2019-05-23T15:42:45.432Z,21.70
2019-05-23T15:45:14.890Z,21.80
2019-05-23T15:47:44.214Z,21.80
2019-05-23T15:50:15.616Z,21.60
2019-05-23T15:52:52.078Z,21.60
2019-05-23T15:55:37.868Z,21.50
2019-05-23T15:58:08.986Z,21.20
2019-05-23T16:00:57.326Z,21.40
2019-05-23T16:03:34.619Z,21.40
2019-05-23T16:06:06.073Z,21.40
2019-05-23T16:08:35.516Z,21.40
2019-05-23T16:11:05.362Z,21.40
2019-05-23T16:13:35.170Z,21.50
2019-05-23T16:16:04.921Z,21.60
2019-05-23T16:18:34.371Z,21.70
2019-05-23T16:21:03.752Z,21.80
2019-05-23T16:23:33.464Z,21.70
2019-05-23T16:26:02.839Z,21.70
2019-05-23T16:28:32.139Z,21.70
2019-05-23T16:31:01.704Z,21.80
2019-05-23T16:33:31.159Z,21.90
2019-05-23T16:36:00.459Z,21.90
2019-05-23T16:38:29.762Z,22.10
2019-05-23T16:40:59.087Z,22.00
2019-05-23T16:43:28.396Z,22.00
2019-05-23T16:45:58.753Z,21.90
2019-05-23T16:48:28.858Z,21.90
2019-05-23T16:50:58.153Z,22.50
2019-05-23T16:53:28.019Z,22.00
2019-05-23T16:56:01.818Z,22.10
2019-05-23T16:58:49.951Z,22.10
2019-05-23T17:01:24.587Z,22.20
2019-05-23T17:04:10.668Z,22.00
2019-05-23T17:06:41.606Z,22.00
2019-05-23T17:09:18.444Z,22.00
2019-05-23T17:11:49.392Z,22.00
2019-05-23T17:14:37.198Z,21.90
2019-05-23T17:17:13.902Z,22.00
2019-05-23T17:19:44.923Z,20.20
2019-05-23T17:22:16.067Z,21.70
2019-05-23T17:24:47.122Z,21.60
2019-05-23T17:27:18.201Z,21.50
2019-05-23T17:29:58.102Z,21.40
2019-05-23T17:32:29.301Z,21.40
2019-05-23T17:34:58.755Z,21.30
2019-05-23T17:37:28.065Z,21.20
2019-05-23T17:39:58.611Z,21.10
2019-05-23T17:42:28.261Z,20.90
2019-05-23T17:44:57.718Z,20.80
2019-05-23T17:47:27.236Z,20.70
2019-05-23T17:49:56.675Z,20.60
2019-05-23T17:52:26.250Z,20.50
2019-05-23T17:54:55.643Z,20.40
2019-05-23T17:57:25.206Z,20.40
2019-05-23T17:59:54.600Z,20.80
2019-05-23T18:02:24.539Z,20.20
2019-05-23T18:04:54.216Z,20.10
2019-05-23T18:07:23.935Z,20.10
2019-05-23T18:09:53.229Z,20.00
2019-05-23T18:12:22.614Z,19.90
2019-05-23T18:14:55.013Z,19.80
2019-05-23T18:17:24.376Z,19.70
2019-05-23T18:19:54.710Z,19.70
2019-05-23T18:22:24.078Z,19.60
2019-05-23T18:24:53.471Z,19.50
2019-05-23T18:27:23.218Z,19.50
2019-05-23T18:29:52.767Z,19.40
2019-05-23T18:32:22.879Z,19.30
2019-05-23T18:34:52.978Z,19.30
2019-05-23T18:37:22.355Z,19.30
2019-05-23T18:39:52.107Z,19.20
2019-05-23T18:42:21.488Z,19.10
2019-05-23T18:44:51.070Z,17.90
2019-05-23T18:47:22.081Z,19.00
2019-05-23T18:49:52.065Z,18.90
2019-05-23T18:52:21.434Z,18.80
2019-05-23T18:54:50.808Z,18.70
2019-05-23T18:57:20.250Z,18.70
2019-05-23T18:59:50.802Z,18.70
2019-05-23T19:02:20.604Z,18.60
2019-05-23T19:04:50.947Z,18.60
2019-05-23T19:07:20.704Z,18.60
2019-05-23T19:09:50.079Z,18.50
2019-05-23T19:12:19.552Z,18.30
2019-05-23T19:14:48.849Z,18.30
2019-05-23T19:17:19.429Z,18.20
2019-05-23T19:19:49.061Z,18.10
2019-05-23T19:22:18.875Z,18.20
2019-05-23T19:24:48.383Z,18.20
2019-05-23T19:27:18.564Z,18.30
2019-05-23T19:29:48.394Z,18.40
2019-05-23T19:32:18.113Z,18.30
2019-05-23T19:34:48.063Z,18.20
2019-05-23T19:37:17.741Z,18.10
2019-05-23T19:39:47.085Z,18.00
2019-05-23T19:42:17.300Z,18.00
2019-05-23T19:44:46.681Z,17.80
2019-05-23T19:47:16.223Z,17.70
2019-05-23T19:49:46.198Z,17.60
2019-05-23T19:52:15.782Z,17.50
2019-05-23T19:54:45.083Z,17.50
2019-05-23T19:57:14.476Z,17.40
2019-05-23T19:59:43.924Z,17.30
2019-05-23T20:02:17.822Z,17.20
2019-05-23T20:04:57.525Z,17.10
2019-05-23T20:07:26.868Z,17.10
2019-05-23T20:09:57.460Z,17.10
2019-05-23T20:12:28.388Z,17.00
2019-05-23T20:14:58.850Z,17.00
2019-05-23T20:17:29.277Z,16.90
2019-05-23T20:19:58.639Z,16.80
2019-05-23T20:22:28.524Z,16.70
2019-05-23T20:24:57.903Z,16.60
2019-05-23T20:27:27.270Z,16.60
2019-05-23T20:29:56.586Z,16.50
2019-05-23T20:32:25.894Z,16.40
2019-05-23T20:34:55.281Z,16.40
2019-05-23T20:37:29.699Z,16.40
2019-05-23T20:39:59.091Z,16.30
2019-05-23T20:42:28.469Z,16.10
2019-05-23T20:44:58.408Z,16.00
2019-05-23T20:47:27.782Z,16.00
2019-05-23T20:50:02.280Z,16.00
2019-05-23T20:52:32.858Z,15.90
2019-05-23T20:55:02.163Z,15.90
2019-05-23T20:57:33.129Z,15.70
2019-05-23T21:00:02.715Z,15.60
2019-05-23T21:02:33.052Z,15.60
2019-05-23T21:05:02.446Z,15.70
2019-05-23T21:07:31.751Z,15.70
2019-05-23T21:10:01.066Z,15.70
2019-05-23T21:12:30.730Z,15.60
2019-05-23T21:15:00.143Z,15.40
2019-05-23T21:17:35.647Z,15.20
2019-05-23T21:20:06.135Z,15.20
2019-05-23T21:22:35.468Z,15.20
2019-05-23T21:25:05.507Z,15.10
2019-05-23T21:27:34.816Z,15.10
2019-05-23T21:30:05.707Z,15.20
2019-05-23T21:32:35.011Z,15.30
2019-05-23T21:35:06.060Z,15.30
2019-05-23T21:37:35.446Z,15.30
2019-05-23T21:40:05.906Z,15.20
2019-05-23T21:42:47.140Z,15.10
2019-05-23T21:45:06.746Z,15.10
2019-05-23T21:47:36.055Z,15.00
2019-05-23T21:50:09.131Z,14.90
2019-05-23T21:52:38.477Z,14.80
2019-05-23T21:55:07.919Z,14.80
2019-05-23T21:57:37.238Z,14.60
2019-05-23T22:00:08.768Z,14.60
2019-05-23T22:02:39.692Z,14.60
2019-05-23T22:05:10.856Z,14.70
2019-05-23T22:07:40.574Z,14.70
2019-05-23T22:10:10.096Z,14.60
2019-05-23T22:12:39.747Z,14.50
2019-05-23T22:15:09.143Z,14.40
2019-05-23T22:17:39.539Z,14.40
2019-05-23T22:20:08.850Z,14.30
2019-05-23T22:22:38.154Z,14.30
2019-05-23T22:25:07.604Z,14.20
2019-05-23T22:27:36.916Z,14.20
2019-05-23T22:30:07.180Z,14.20
2019-05-23T22:32:38.245Z,14.20
2019-05-23T22:35:09.279Z,14.10
2019-05-23T22:37:38.594Z,14.10
2019-05-23T22:40:08.835Z,14.10
2019-05-23T22:42:39.115Z,14.10
2019-05-23T22:45:10.206Z,14.10
2019-05-23T22:47:39.518Z,14.10
2019-05-23T22:50:08.965Z,14.00
2019-05-23T22:52:38.353Z,14.00
2019-05-23T22:55:07.795Z,14.00
2019-05-23T22:57:37.271Z,14.00
2019-05-23T23:00:06.891Z,14.00
2019-05-23T23:02:36.266Z,13.90
2019-05-23T23:05:05.652Z,13.80
2019-05-23T23:07:35.273Z,13.80
2019-05-23T23:10:05.415Z,13.70
2019-05-23T23:12:34.727Z,13.70
2019-05-23T23:15:05.738Z,13.70
2019-05-23T23:17:35.042Z,13.70
2019-05-23T23:20:07.454Z,13.90
2019-05-23T23:22:37.257Z,14.00
2019-05-23T23:25:06.833Z,13.90
2019-05-23T23:27:36.205Z,13.80
2019-05-23T23:30:07.412Z,13.80
2019-05-23T23:32:36.717Z,13.80
2019-05-23T23:35:06.764Z,13.80
2019-05-23T23:37:36.075Z,13.70
2019-05-23T23:40:06.354Z,13.80
2019-05-23T23:42:35.787Z,13.90
2019-05-23T23:45:24.488Z,13.90
2019-05-23T23:48:11.739Z,13.90
2019-05-23T23:50:58.961Z,13.70
2019-05-23T23:53:46.960Z,13.50
2019-05-23T23:56:34.406Z,13.40
2019-05-23T23:59:03.096Z,13.30
